createdAt,value
2016-05-28T00:08:37.164Z,13.2
2016-05-28T00:23:36.548Z,12.9
2016-05-28T00:38:32.307Z,12.8
2016-05-28T00:53:38.675Z,12.6
2016-05-28T01:08:36.466Z,12.4
2016-05-28T01:23:34.365Z,12.4
2016-05-28T01:38:32.312Z,12.5
2016-05-28T01:53:32.305Z,12.6
2016-05-28T02:08:36.471Z,12.7
2016-05-28T02:23:38.512Z,12.7
2016-05-28T02:38:36.489Z,12.7
2016-05-28T02:53:40.405Z,12.8
2016-05-28T03:08:36.555Z,12.8
2016-05-28T03:23:43.532Z,12.7
2016-05-28T03:38:32.338Z,12.6
2016-05-28T03:53:34.551Z,12.7
2016-05-28T04:08:32.340Z,12.7
2016-05-28T04:23:32.334Z,12.7
2016-05-28T04:38:36.687Z,12.8
2016-05-28T04:53:47.024Z,12.8
2016-05-28T05:08:32.309Z,12.9
2016-05-28T05:23:37.522Z,13.1
2016-05-28T05:38:36.601Z,13.3
2016-05-28T05:53:40.875Z,13.7
2016-05-28T06:08:36.712Z,14.2
2016-05-28T06:23:32.581Z,14.8
2016-05-28T06:38:34.621Z,15.4
2016-05-28T06:53:32.724Z,16.2
2016-05-28T07:08:32.577Z,17.3
2016-05-28T07:23:32.648Z,18.4
2016-05-28T07:38:32.610Z,19.4
2016-05-28T07:53:32.604Z,20.1
2016-05-28T08:08:43.707Z,20.9
2016-05-28T08:23:38.669Z,21.2
2016-05-28T08:38:38.913Z,21.7
2016-05-28T08:53:34.688Z,22.1
2016-05-28T09:08:32.602Z,22.9
2016-05-28T09:23:39.003Z,23.4
2016-05-28T09:38:35.574Z,23.4
2016-05-28T09:53:41.036Z,23.5
2016-05-28T10:08:39.796Z,23.3
2016-05-28T10:23:32.665Z,23.5
2016-05-28T10:38:40.829Z,23.3
2016-05-28T10:53:32.635Z,22.9
2016-05-28T11:08:36.800Z,22.9
2016-05-28T11:23:34.747Z,23.2
2016-05-28T11:38:34.709Z,22.4
2016-05-28T11:53:45.234Z,23.5
2016-05-28T12:08:39.008Z,24.4
2016-05-28T12:23:32.674Z,24.5
2016-05-28T12:38:38.825Z,23.8
2016-05-28T12:53:32.646Z,23.2
2016-05-28T13:08:39.015Z,22.7
2016-05-28T13:23:32.633Z,22.3
2016-05-28T13:38:32.673Z,22.4
2016-05-28T13:53:32.697Z,22.8
2016-05-28T14:08:32.692Z,23
2016-05-28T14:09:39.507Z,23
2016-05-28T14:14:47.004Z,22.9
2016-05-28T14:29:40.459Z,23
2016-05-28T14:44:42.489Z,22.9
2016-05-28T14:59:42.469Z,22.9
2016-05-28T15:14:42.555Z,22.8
2016-05-28T15:29:59.158Z,22.9
2016-05-28T15:44:48.292Z,22.9
2016-05-28T15:59:42.458Z,22.6
2016-05-28T16:14:40.513Z,22.5
2016-05-28T16:29:44.585Z,22.4
2016-05-28T16:44:40.501Z,22.2
2016-05-28T16:59:40.447Z,22.1
2016-05-28T17:14:53.096Z,21.9
2016-05-28T17:29:42.558Z,21.5
2016-05-28T17:44:55.240Z,21.2
2016-05-28T17:59:40.500Z,21
2016-05-28T18:14:42.649Z,20.8
2016-05-28T18:29:40.580Z,20.5
2016-05-28T18:44:40.510Z,20.1
2016-05-28T18:59:42.675Z,19.8
2016-05-28T19:14:52.919Z,19.5
2016-05-28T19:29:40.584Z,19.2
2016-05-28T19:44:40.593Z,18.9
2016-05-28T19:59:44.759Z,18.7
2016-05-28T20:14:48.816Z,18.6
2016-05-28T20:29:40.559Z,18.6
2016-05-28T20:44:42.709Z,18.4
2016-05-28T20:59:44.765Z,18.3
2016-05-28T21:14:40.555Z,18.1
2016-05-28T21:29:48.939Z,18
2016-05-28T21:44:52.963Z,17.9
2016-05-28T21:59:42.535Z,17.7
2016-05-28T22:02:59.449Z,17.7
2016-05-28T22:17:54.349Z,17.5
2016-05-28T22:32:47.998Z,17.4
2016-05-28T22:47:49.930Z,17.3
2016-05-28T23:02:50.049Z,17.2
2016-05-28T23:17:51.730Z,17
2016-05-28T23:32:50.361Z,17
2016-05-28T23:47:48.197Z,16.8
